Address 0x1e4b55a412db1dadc949af085ac33643b0f42895 4

 
Txn Hash Method
Block
From
To
Value [Txn Fee]
0x7b201a0fb60fbb6cbe6a86dbb275e55c9c67e2c74443414330c82361fa3f3399Transfer24907242020-11-23 15:47:42304 days 20 mins ago0x1e4b55a412db1dadc949af085ac33643b0f42895OUT Polkadot: DOT Token0 BNB0.00289112
0x0ef741845a4c2a580e60a28ef0bf15d51846ffd924f9567397904c96e88f5671Transfer24907032020-11-23 15:46:39304 days 21 mins ago0x473047481598d9d293c79f7cfd8017874d835573 IN 0x1e4b55a412db1dadc949af085ac33643b0f428950.031926849621703 BNB0.002268
0xdd8d9bfdb7d49afa8f53d46ffea1c3df05585bd54c7518b105e98e8faf5f1a82Transfer24906352020-11-23 15:43:15304 days 24 mins ago0x1e4b55a412db1dadc949af085ac33643b0f42895OUT0x12870d28a72dfd2c56cdb6502fbd1a5481511e3412.153970935656642 BNB0.00168
0xe993926ada955ab5a3abcbbaa3050b7bbe07cc175b087e32653d72dc2d829b34Transfer24905972020-11-23 15:41:21304 days 26 mins ago0x1e4b55a412db1dadc949af085ac33643b0f42895OUT Binance: BUSD Stablecoin0 BNB0.00289112
0xe6fa65cdb4a245edec460b9b580599a717f9f65be3713604d279f00ab101d80cTransfer24905682020-11-23 15:39:54304 days 28 mins ago0x1e4b55a412db1dadc949af085ac33643b0f42895OUT Ripple: XRP Token0 BNB0.00169112
0xc85e377ecb67f3db20efcb10e84759c2f75da4a090bc39a445b14e90cc68877cTransfer24905042020-11-23 15:36:42304 days 31 mins ago0x1e4b55a412db1dadc949af085ac33643b0f42895OUT Ripple: XRP Token0 BNB0.00408824
0x4ed3f9ef110703931e16486f592f1ff042818b2e09a10d60769c46ef783ad1cdSwap Exact Token...8779092020-09-28 15:05:07360 days 1 hr ago0x1e4b55a412db1dadc949af085ac33643b0f42895OUT 0xc3ffcb3d5745bba5ada6928d0f5238830a3589430 BNB0.00189206
0xbe75528417a1b6ac6270b59b2f1c6f5a000327345e0ccfc5263ed7045e174a2cSwap Exact Token...8778022020-09-28 14:59:46360 days 1 hr ago0x1e4b55a412db1dadc949af085ac33643b0f42895OUT 0xc3ffcb3d5745bba5ada6928d0f5238830a3589430 BNB0.00068276
0x22456f4254b024549d3b56ffb6cbc9f88cb6557cb6bb6a4a3ed84372c2ca9d50Approve8777622020-09-28 14:57:46360 days 1 hr ago0x1e4b55a412db1dadc949af085ac33643b0f42895OUT FarmSwap: FARM Token0 BNB0.00088812
0xf6d3fc792d465da387f001e8516951f862eb0eed27a8741137f36e1a113c4d6eClaim8776922020-09-28 14:54:16360 days 1 hr ago0x1e4b55a412db1dadc949af085ac33643b0f42895OUT 0x1c837a61efa88d28a6ee1b5721664bdbf015ed100 BNB0.00152356
0xbd8572001e8fabee8142e0db70b546ed10bd97e90bc993aaeb62ef5edc54ea75Swap Exact Token...4858232020-09-15 0:20:49373 days 15 hrs ago0x1e4b55a412db1dadc949af085ac33643b0f42895OUT 0xcde540d7eafe93ac5fe6233bee57e1270d3e330f0 BNB0.0026214
0xa6f5874331cc059f5a52da5a7705c8bc329a25770367c9f379844f2219495aebRemove Liquidity...4857962020-09-15 0:19:28373 days 15 hrs ago0x1e4b55a412db1dadc949af085ac33643b0f42895OUT 0xcde540d7eafe93ac5fe6233bee57e1270d3e330f0 BNB0.00414938
0x5a2d8ac972796afe9c9dd975256ce164e0516d2bb78ccee0c6b4bb99be5eaad8Withdraw4857782020-09-15 0:18:34373 days 15 hrs ago0x1e4b55a412db1dadc949af085ac33643b0f42895OUT 0x20ec291bb8459b6145317e7126532ce7ece5056f0 BNB0.00285926
0x57124257bec6093a6001331fc09351d93112a8995a16e7456a7b6707f13ae905Swap Exact Token...4768722020-09-14 16:53:16373 days 23 hrs ago0x1e4b55a412db1dadc949af085ac33643b0f42895OUT 0xcde540d7eafe93ac5fe6233bee57e1270d3e330f0 BNB0.00286124
0x2287d3f5abf1d65d7f9ed9781492c61250884400434c8b0161557420c3bded30Deposit4768602020-09-14 16:52:40373 days 23 hrs ago0x1e4b55a412db1dadc949af085ac33643b0f42895OUT 0x20ec291bb8459b6145317e7126532ce7ece5056f0 BNB0.00138474
0x135c89de49fd2da74d3bb67323607d4f2b24bc4e5adfec4a99dbb4613572c6ceDeposit4767752020-09-14 16:48:25373 days 23 hrs ago0x1e4b55a412db1dadc949af085ac33643b0f42895OUT 0x20ec291bb8459b6145317e7126532ce7ece5056f0 BNB0.00168474
0x4ef35e97c777fbab362c6ba5b0845df1f604cef363cdc528a295377e46720f32Swap Exact Token...4767252020-09-14 16:45:55373 days 23 hrs ago0x1e4b55a412db1dadc949af085ac33643b0f42895OUT 0xcde540d7eafe93ac5fe6233bee57e1270d3e330f0 BNB0.00262092
0xe4be7e7af918db68fa3ddd96154377e196e23a31595612f9e74677b4bf034954Deposit4767132020-09-14 16:45:19373 days 23 hrs ago0x1e4b55a412db1dadc949af085ac33643b0f42895OUT 0x20ec291bb8459b6145317e7126532ce7ece5056f0 BNB0.00138474
0x8bb9885de39a803ea57076ee03b1537819541df41b884d7c35fd91647a107010Deposit4766432020-09-14 16:41:49373 days 23 hrs ago0x1e4b55a412db1dadc949af085ac33643b0f42895OUT 0x20ec291bb8459b6145317e7126532ce7ece5056f0 BNB0.00163866
0x3c4b560c477ee3af6821d713b973e3d44da564bdb80eea9e681f5ef4226fe79aAdd Liquidity BN...4766352020-09-14 16:41:25373 days 23 hrs ago0x1e4b55a412db1dadc949af085ac33643b0f42895OUT 0xcde540d7eafe93ac5fe6233bee57e1270d3e330f0.343467530979356 BNB0.00330406
0x32c497112338a9a9cb0dcbbda550bad1f8bdc6eef5ef3ec8a7b4942b96e33612Deposit4766082020-09-14 16:40:04373 days 23 hrs ago0x1e4b55a412db1dadc949af085ac33643b0f42895OUT 0x20ec291bb8459b6145317e7126532ce7ece5056f0 BNB0.00138474
0x4c6e9b45872a7d256ea63c4f8676c9ad1e8aa2f95810b955eafed68210496bc6Remove Liquidity...4765942020-09-14 16:39:22373 days 23 hrs ago0x1e4b55a412db1dadc949af085ac33643b0f42895OUT 0xcde540d7eafe93ac5fe6233bee57e1270d3e330f0 BNB0.00415194
0x01540fb01c6bc3f9cca2d0374264798d603f0ab9eb1a280d8037bc6f10d7cfbbDeposit4765632020-09-14 16:37:49373 days 23 hrs ago0x1e4b55a412db1dadc949af085ac33643b0f42895OUT 0x20ec291bb8459b6145317e7126532ce7ece5056f0 BNB0.00262848
0x4188e574cd1ff4d13b4182f94f9c8216c24b67a4030da1c0858bd1e248734c14Withdraw4764992020-09-14 16:34:37373 days 23 hrs ago0x1e4b55a412db1dadc949af085ac33643b0f42895OUT 0x20ec291bb8459b6145317e7126532ce7ece5056f0 BNB0.0025595
0x2b4634743aea7d429ef65c4070442d75f71e14bef365ff8951723230c7aa3f71Withdraw4764882020-09-14 16:34:04373 days 23 hrs ago0x1e4b55a412db1dadc949af085ac33643b0f42895OUT 0x20ec291bb8459b6145317e7126532ce7ece5056f0 BNB0.00290158
[ Download CSV Export 
Latest 8 internal transactions
Parent Txn Hash Block From To Value
0xa6f5874331cc059f5a52da5a7705c8bc329a25770367c9f379844f2219495aeb4857962020-09-15 0:19:28373 days 15 hrs ago 0xcde540d7eafe93ac5fe6233bee57e1270d3e330f0x1e4b55a412db1dadc949af085ac33643b0f428950.425922328677792109 BNB
0x3c4b560c477ee3af6821d713b973e3d44da564bdb80eea9e681f5ef4226fe79a4766352020-09-14 16:41:25373 days 23 hrs ago 0xcde540d7eafe93ac5fe6233bee57e1270d3e330f0x1e4b55a412db1dadc949af085ac33643b0f428950.004816413144097302 BNB
0x4c6e9b45872a7d256ea63c4f8676c9ad1e8aa2f95810b955eafed68210496bc64765942020-09-14 16:39:22373 days 23 hrs ago 0xcde540d7eafe93ac5fe6233bee57e1270d3e330f0x1e4b55a412db1dadc949af085ac33643b0f4289512.067712267003027392 BNB
0xa57b528159025134875750c5f6b1e1ee5b918f4d39182a8bcd57ea349346d3024759822020-09-14 16:08:46373 days 23 hrs ago 0xcde540d7eafe93ac5fe6233bee57e1270d3e330f0x1e4b55a412db1dadc949af085ac33643b0f428950.003002167028289702 BNB
0x09ff29a915aa7fc6d387062a4b2be974537366f20d68eb4b8b8823d3390b24d14759362020-09-14 16:06:28374 days 1 min ago 0xcde540d7eafe93ac5fe6233bee57e1270d3e330f0x1e4b55a412db1dadc949af085ac33643b0f428950.028293378435181942 BNB
0x053dd84cb767e85bdb892b7ffd44b022c90789ff4379d09a28d500b54a27fbdb4756962020-09-14 15:54:28374 days 13 mins ago 0xcde540d7eafe93ac5fe6233bee57e1270d3e330f0x1e4b55a412db1dadc949af085ac33643b0f428951 wei
0xb9fc644a682299548db9acfb3c23ae949b7fdd6ffd549121a0c9dbc04d21ec984744162020-09-14 14:50:28374 days 1 hr ago 0x75ca8f6c82df5fdfd09049f46ad5d072b0a53bf60x1e4b55a412db1dadc949af085ac33643b0f428950.385900235890613752 BNB
0xe69835fd2a06018c013576c003fe37f53efe7f899f2fe2dd09fd98aa73163ef24743812020-09-14 14:48:43374 days 1 hr ago 0x75ca8f6c82df5fdfd09049f46ad5d072b0a53bf60x1e4b55a412db1dadc949af085ac33643b0f428957.247117343576811473 BNB
[ Download CSV Export 
Loading

Contract Name:
0 BNB

Compiler Version
0

Optimization Enabled:
0 BNB

Other Settings:
-NA-
Block Transaction Gas Used Reward
Age Block Fee Address BC Fee Address Voting Power Jailed Incoming
Block Uncle Number Difficulty Gas Used Reward
Loading
Loading
Make sure to use the "Vote Down" button for any spammy posts, and the "Vote Up" for interesting conversations.